Terminal Aerodrome Forecast
Issued by NWS

Home | Current Version | Previous Version | Text Only | Print | Product List | Glossary On
Versions: 1 2 3 4 5 6 7 8 9 10 11 12 13 14 15 16 17 18 19
000
FTUS46 KLOX 012340
TAFPRB
TAF
KPRB 012340Z 0200/0224 20015KT P6SM BKN250
     FM020400 30012KT P6SM SCT250
     FM021000 VRB03KT 5SM BR OVC005
     FM021800 27005KT P6SM SCT250
     FM022000 23015G20KT P6SM SCT250=

USA.gov is the U.S. government's official web portal to all federal, state and local government web resources and services.